CheckWX is a tool to help pilots better visualize weather data.  It is not intended as a substitute for an official pre-flight weather briefing.

18:24:14 UTC

KBKN METAR
Blackwell-Tonkawa Municipal Airport
Blackwell, Oklahoma, USA
Current

9 mins ago

KBKN 201815Z AUTO 15010KT 10SM FEW016 SCT020 BKN044 26/25 A2997 RMK AO2
Observed
Sep-20 @ 18:15 UTC
Wind
  • 150° at 10 KTS
Visibility
10 SM
Flight Rules
VFR
Cloud Levels
  • Few at 1,600' AGL
  • Scattered at 2,000' AGL
  • Broken at 4,400' AGL
Temperature
26°C / 79°F
Dewpoint
25°C / 77°F
Humidity
94%
Altimeter
29.97" Hg
Pressure
1014.92 hPa
Previous

29 mins ago

KBKN 201755Z AUTO 13007KT 10SM FEW013 FEW027 OVC043 25/25 A2997 RMK AO2
Observed
Sep-20 @ 17:55 UTC
Wind
  • 130° at 7 KTS
Visibility
10 SM
Flight Rules
VFR
Cloud Levels
  • Few at 1,300' AGL
  • Few at 2,700' AGL
  • Overcast at 4,300' AGL
Temperature
25°C / 77°F
Dewpoint
25°C / 77°F
Humidity
100%
Altimeter
29.97" Hg
Pressure
1014.92 hPa
Previous

49 mins ago

KBKN 201735Z AUTO 15010KT 10SM FEW013 SCT036 BKN043 25/25 A2998 RMK AO2
Observed
Sep-20 @ 17:35 UTC
Wind
  • 150° at 10 KTS
Visibility
10 SM
Flight Rules
VFR
Cloud Levels
  • Few at 1,300' AGL
  • Scattered at 3,600' AGL
  • Broken at 4,300' AGL
Temperature
25°C / 77°F
Dewpoint
25°C / 77°F
Humidity
100%
Altimeter
29.98" Hg
Pressure
1015.22 hPa